sensor_id;sensor_type;location;lat;lon;timestamp;pressure;altitude;pressure_sealevel;temperature;humidity
47897;BME280;39629;51.400;5.494;2023-09-18T00:00:55;100321.41;;;18.37;100.00
47897;BME280;39629;51.400;5.494;2023-09-18T00:05:58;100317.81;;;18.38;100.00
47897;BME280;39629;51.400;5.494;2023-09-18T00:11:01;100316.03;;;18.59;100.00
47897;BME280;39629;51.400;5.494;2023-09-18T00:16:03;100306.50;;;18.53;100.00
47897;BME280;39629;51.400;5.494;2023-09-18T00:21:05;100292.03;;;18.59;100.00
47897;BME280;39629;51.400;5.494;2023-09-18T00:26:08;100281.78;;;18.50;100.00
47897;BME280;39629;51.400;5.494;2023-09-18T00:31:10;100268.22;;;18.56;100.00
47897;BME280;39629;51.400;5.494;2023-09-18T00:36:11;100259.31;;;18.55;100.00
47897;BME280;39629;51.400;5.494;2023-09-18T00:41:15;100250.66;;;18.50;100.00
47897;BME280;39629;51.400;5.494;2023-09-18T00:46:16;100241.91;;;18.48;100.00
47897;BME280;39629;51.400;5.494;2023-09-18T00:51:18;100243.41;;;18.54;100.00
47897;BME280;39629;51.400;5.494;2023-09-18T00:56:21;100242.69;;;18.50;100.00
47897;BME280;39629;51.400;5.494;2023-09-18T01:01:23;100225.69;;;18.53;100.00
47897;BME280;39629;51.400;5.494;2023-09-18T01:06:25;100214.91;;;18.56;100.00
47897;BME280;39629;51.400;5.494;2023-09-18T01:11:43;100205.84;;;18.60;100.00
47897;BME280;39629;51.400;5.494;2023-09-18T01:16:54;100200.50;;;18.60;100.00
47897;BME280;39629;51.400;5.494;2023-09-18T01:21:57;100206.97;;;18.54;100.00
47897;BME280;39629;51.400;5.494;2023-09-18T01:27:01;100199.72;;;18.58;100.00
47897;BME280;39629;51.400;5.494;2023-09-18T01:32:04;100190.63;;;18.62;100.00
47897;BME280;39629;51.400;5.494;2023-09-18T01:37:07;100194.06;;;18.64;100.00
47897;BME280;39629;51.400;5.494;2023-09-18T01:42:11;100181.34;;;18.71;100.00
47897;BME280;39629;51.400;5.494;2023-09-18T01:47:16;100179.63;;;18.70;100.00
47897;BME280;39629;51.400;5.494;2023-09-18T01:52:19;100180.75;;;18.83;100.00
47897;BME280;39629;51.400;5.494;2023-09-18T01:57:21;100176.16;;;18.87;100.00
47897;BME280;39629;51.400;5.494;2023-09-18T02:02:23;100170.16;;;18.82;100.00
47897;BME280;39629;51.400;5.494;2023-09-18T02:07:25;100159.28;;;18.86;100.00
47897;BME280;39629;51.400;5.494;2023-09-18T02:12:28;100151.84;;;18.93;100.00
47897;BME280;39629;51.400;5.494;2023-09-18T02:17:30;100146.44;;;18.95;100.00
47897;BME280;39629;51.400;5.494;2023-09-18T02:22:31;100138.22;;;18.99;100.00
47897;BME280;39629;51.400;5.494;2023-09-18T02:27:34;100128.94;;;18.89;100.00
47897;BME280;39629;51.400;5.494;2023-09-18T02:32:36;100126.59;;;18.83;100.00
47897;BME280;39629;51.400;5.494;2023-09-18T02:37:38;100135.81;;;18.76;100.00
47897;BME280;39629;51.400;5.494;2023-09-18T02:42:42;100132.59;;;19.05;100.00
47897;BME280;39629;51.400;5.494;2023-09-18T02:47:44;100094.47;;;19.03;100.00
47897;BME280;39629;51.400;5.494;2023-09-18T02:52:45;100086.72;;;19.16;100.00
47897;BME280;39629;51.400;5.494;2023-09-18T02:57:48;100069.38;;;19.07;100.00
47897;BME280;39629;51.400;5.494;2023-09-18T03:02:50;100071.41;;;19.02;100.00
47897;BME280;39629;51.400;5.494;2023-09-18T03:07:52;100080.38;;;18.82;100.00
47897;BME280;39629;51.400;5.494;2023-09-18T03:12:55;100075.13;;;18.81;100.00
47897;BME280;39629;51.400;5.494;2023-09-18T03:17:57;100093.19;;;18.76;100.00
47897;BME280;39629;51.400;5.494;2023-09-18T03:23:00;100092.88;;;18.82;100.00
47897;BME280;39629;51.400;5.494;2023-09-18T03:28:04;100112.94;;;18.89;100.00
47897;BME280;39629;51.400;5.494;2023-09-18T03:33:07;100097.28;;;19.00;100.00
47897;BME280;39629;51.400;5.494;2023-09-18T03:38:09;100094.97;;;19.12;100.00
47897;BME280;39629;51.400;5.494;2023-09-18T03:43:13;100080.53;;;19.16;100.00
47897;BME280;39629;51.400;5.494;2023-09-18T03:48:15;100096.28;;;19.20;100.00
47897;BME280;39629;51.400;5.494;2023-09-18T03:53:17;100070.59;;;19.00;100.00
47897;BME280;39629;51.400;5.494;2023-09-18T03:58:20;100066.84;;;18.87;100.00
47897;BME280;39629;51.400;5.494;2023-09-18T04:03:22;100084.22;;;18.77;100.00
47897;BME280;39629;51.400;5.494;2023-09-18T04:08:24;100103.69;;;18.79;100.00
47897;BME280;39629;51.400;5.494;2023-09-18T04:13:27;100080.34;;;18.84;100.00
47897;BME280;39629;51.400;5.494;2023-09-18T04:18:29;100074.53;;;18.76;100.00
47897;BME280;39629;51.400;5.494;2023-09-18T04:23:31;100065.50;;;18.78;100.00
47897;BME280;39629;51.400;5.494;2023-09-18T04:28:35;100040.16;;;18.69;100.00
47897;BME280;39629;51.400;5.494;2023-09-18T04:33:39;100047.47;;;18.66;100.00
47897;BME280;39629;51.400;5.494;2023-09-18T04:38:40;100022.50;;;18.67;100.00
47897;BME280;39629;51.400;5.494;2023-09-18T04:43:44;100015.06;;;18.56;100.00
47897;BME280;39629;51.400;5.494;2023-09-18T04:48:46;99995.47;;;18.57;100.00
47897;BME280;39629;51.400;5.494;2023-09-18T04:53:48;100012.69;;;18.50;100.00
47897;BME280;39629;51.400;5.494;2023-09-18T04:58:51;100011.34;;;18.41;100.00
47897;BME280;39629;51.400;5.494;2023-09-18T05:03:53;100001.81;;;18.35;100.00
47897;BME280;39629;51.400;5.494;2023-09-18T05:08:54;100011.53;;;18.36;100.00
47897;BME280;39629;51.400;5.494;2023-09-18T05:13:59;100002.19;;;18.28;100.00
47897;BME280;39629;51.400;5.494;2023-09-18T05:19:00;100008.31;;;18.30;100.00
47897;BME280;39629;51.400;5.494;2023-09-18T05:24:03;100011.75;;;18.32;100.00
47897;BME280;39629;51.400;5.494;2023-09-18T05:29:06;100020.66;;;18.31;100.00
47897;BME280;39629;51.400;5.494;2023-09-18T05:34:08;99996.63;;;18.32;100.00
47897;BME280;39629;51.400;5.494;2023-09-18T05:39:10;100010.50;;;18.39;100.00
47897;BME280;39629;51.400;5.494;2023-09-18T05:44:14;100020.25;;;18.40;100.00
47897;BME280;39629;51.400;5.494;2023-09-18T05:49:16;100032.28;;;18.49;100.00
47897;BME280;39629;51.400;5.494;2023-09-18T05:54:17;100026.81;;;18.52;100.00
47897;BME280;39629;51.400;5.494;2023-09-18T05:59:20;100044.91;;;18.45;100.00
47897;BME280;39629;51.400;5.494;2023-09-18T06:04:22;100056.91;;;18.54;100.00
47897;BME280;39629;51.400;5.494;2023-09-18T06:09:24;100055.31;;;18.50;100.00
47897;BME280;39629;51.400;5.494;2023-09-18T06:14:27;100050.00;;;18.50;100.00
47897;BME280;39629;51.400;5.494;2023-09-18T06:19:28;100062.53;;;18.48;100.00
47897;BME280;39629;51.400;5.494;2023-09-18T06:24:30;100061.56;;;18.49;100.00
47897;BME280;39629;51.400;5.494;2023-09-18T06:29:34;100061.56;;;18.49;100.00
47897;BME280;39629;51.400;5.494;2023-09-18T06:34:38;100071.63;;;18.44;100.00
47897;BME280;39629;51.400;5.494;2023-09-18T06:39:43;100078.91;;;18.38;100.00
47897;BME280;39629;51.400;5.494;2023-09-18T06:44:46;100087.38;;;18.48;100.00
47897;BME280;39629;51.400;5.494;2023-09-18T06:49:47;100092.34;;;18.56;100.00
47897;BME280;39629;51.400;5.494;2023-09-18T06:54:49;100103.78;;;18.58;100.00
47897;BME280;39629;51.400;5.494;2023-09-18T06:59:52;100115.78;;;18.67;100.00
47897;BME280;39629;51.400;5.494;2023-09-18T07:04:53;100104.44;;;18.63;100.00
47897;BME280;39629;51.400;5.494;2023-09-18T07:09:55;100113.28;;;18.64;100.00
47897;BME280;39629;51.400;5.494;2023-09-18T07:14:58;100114.94;;;18.66;100.00
47897;BME280;39629;51.400;5.494;2023-09-18T07:20:00;100123.84;;;18.65;100.00
47897;BME280;39629;51.400;5.494;2023-09-18T07:25:04;100125.59;;;18.66;100.00
47897;BME280;39629;51.400;5.494;2023-09-18T07:30:09;100129.84;;;18.70;100.00
47897;BME280;39629;51.400;5.494;2023-09-18T07:35:11;100138.50;;;18.76;100.00
47897;BME280;39629;51.400;5.494;2023-09-18T07:40:14;100143.81;;;18.76;100.00
47897;BME280;39629;51.400;5.494;2023-09-18T07:45:17;100132.19;;;18.77;100.00
47897;BME280;39629;51.400;5.494;2023-09-18T07:50:19;100138.31;;;18.98;100.00
47897;BME280;39629;51.400;5.494;2023-09-18T07:55:20;100137.44;;;18.97;100.00
47897;BME280;39629;51.400;5.494;2023-09-18T08:00:23;100144.66;;;18.95;100.00
47897;BME280;39629;51.400;5.494;2023-09-18T08:05:26;100136.34;;;19.01;100.00
47897;BME280;39629;51.400;5.494;2023-09-18T08:10:28;100133.75;;;19.00;100.00
47897;BME280;39629;51.400;5.494;2023-09-18T08:15:31;100143.03;;;19.10;100.00
47897;BME280;39629;51.400;5.494;2023-09-18T08:20:33;100147.56;;;19.45;100.00
47897;BME280;39629;51.400;5.494;2023-09-18T08:25:36;100161.41;;;19.86;100.00
47897;BME280;39629;51.400;5.494;2023-09-18T08:30:39;100162.88;;;20.09;100.00
47897;BME280;39629;51.400;5.494;2023-09-18T08:35:41;100173.91;;;19.86;100.00
47897;BME280;39629;51.400;5.494;2023-09-18T08:40:42;100183.59;;;19.71;100.00
47897;BME280;39629;51.400;5.494;2023-09-18T08:45:51;100183.97;;;19.98;100.00
47897;BME280;39629;51.400;5.494;2023-09-18T08:50:53;100186.25;;;19.88;100.00
47897;BME280;39629;51.400;5.494;2023-09-18T08:55:55;100184.84;;;20.32;100.00
47897;BME280;39629;51.400;5.494;2023-09-18T09:01:00;100181.34;;;20.32;100.00
47897;BME280;39629;51.400;5.494;2023-09-18T09:06:04;100180.69;;;21.08;100.00
47897;BME280;39629;51.400;5.494;2023-09-18T09:11:06;100174.31;;;21.57;100.00
47897;BME280;39629;51.400;5.494;2023-09-18T09:16:11;100181.06;;;21.78;100.00
47897;BME280;39629;51.400;5.494;2023-09-18T09:21:13;100182.22;;;21.12;100.00
47897;BME280;39629;51.400;5.494;2023-09-18T09:26:16;100192.50;;;21.66;100.00
47897;BME280;39629;51.400;5.494;2023-09-18T09:31:26;100193.31;;;22.42;100.00
47897;BME280;39629;51.400;5.494;2023-09-18T09:36:29;100199.03;;;22.07;100.00
47897;BME280;39629;51.400;5.494;2023-09-18T09:41:31;100196.06;;;22.55;100.00
47897;BME280;39629;51.400;5.494;2023-09-18T09:46:35;100197.88;;;21.81;100.00
47897;BME280;39629;51.400;5.494;2023-09-18T09:51:37;100176.94;;;22.46;100.00
47897;BME280;39629;51.400;5.494;2023-09-18T09:56:44;100187.31;;;21.93;100.00
47897;BME280;39629;51.400;5.494;2023-09-18T10:01:48;100196.63;;;22.17;100.00
47897;BME280;39629;51.400;5.494;2023-09-18T10:06:52;100217.31;;;21.84;100.00
47897;BME280;39629;51.400;5.494;2023-09-18T10:11:54;100223.28;;;21.89;100.00
47897;BME280;39629;51.400;5.494;2023-09-18T10:17:01;100229.81;;;21.69;100.00
47897;BME280;39629;51.400;5.494;2023-09-18T10:22:11;100234.00;;;21.43;100.00
47897;BME280;39629;51.400;5.494;2023-09-18T10:27:18;100217.53;;;21.51;100.00
47897;BME280;39629;51.400;5.494;2023-09-18T10:32:24;100223.59;;;21.99;100.00
47897;BME280;39629;51.400;5.494;2023-09-18T10:37:30;100227.13;;;21.69;100.00
47897;BME280;39629;51.400;5.494;2023-09-18T10:42:33;100232.97;;;21.61;100.00
47897;BME280;39629;51.400;5.494;2023-09-18T10:47:38;100226.09;;;21.72;100.00
47897;BME280;39629;51.400;5.494;2023-09-18T10:52:43;100208.16;;;21.58;100.00
47897;BME280;39629;51.400;5.494;2023-09-18T10:57:52;100210.94;;;21.40;100.00
47897;BME280;39629;51.400;5.494;2023-09-18T11:03:12;100210.09;;;21.56;100.00
47897;BME280;39629;51.400;5.494;2023-09-18T11:08:27;100199.44;;;21.85;100.00
47897;BME280;39629;51.400;5.494;2023-09-18T11:13:31;100201.66;;;23.35;100.00
47897;BME280;39629;51.400;5.494;2023-09-18T11:18:34;100201.13;;;22.59;100.00
47897;BME280;39629;51.400;5.494;2023-09-18T11:23:37;100211.78;;;22.46;100.00
47897;BME280;39629;51.400;5.494;2023-09-18T11:28:40;100214.00;;;22.25;100.00
47897;BME280;39629;51.400;5.494;2023-09-18T11:33:44;100215.28;;;23.32;100.00
47897;BME280;39629;51.400;5.494;2023-09-18T11:38:56;100213.47;;;23.33;100.00
47897;BME280;39629;51.400;5.494;2023-09-18T11:44:34;100198.22;;;23.06;100.00
47897;BME280;39629;51.400;5.494;2023-09-18T11:49:46;100201.91;;;23.18;100.00
47897;BME280;39629;51.400;5.494;2023-09-18T11:54:49;100204.59;;;23.85;100.00
47897;BME280;39629;51.400;5.494;2023-09-18T11:59:51;100192.47;;;23.79;100.00
47897;BME280;39629;51.400;5.494;2023-09-18T12:04:55;100187.63;;;24.23;100.00
47897;BME280;39629;51.400;5.494;2023-09-18T12:09:56;100194.31;;;23.52;100.00
47897;BME280;39629;51.400;5.494;2023-09-18T12:14:58;100188.88;;;23.39;100.00
47897;BME280;39629;51.400;5.494;2023-09-18T12:20:01;100189.72;;;22.85;100.00
47897;BME280;39629;51.400;5.494;2023-09-18T12:25:11;100176.50;;;23.36;100.00
47897;BME280;39629;51.400;5.494;2023-09-18T12:30:15;100171.59;;;23.70;100.00
47897;BME280;39629;51.400;5.494;2023-09-18T12:35:22;100175.16;;;24.35;100.00
47897;BME280;39629;51.400;5.494;2023-09-18T12:40:30;100171.66;;;23.56;100.00
47897;BME280;39629;51.400;5.494;2023-09-18T12:45:34;100174.53;;;23.53;100.00
47897;BME280;39629;51.400;5.494;2023-09-18T12:50:37;100173.34;;;23.17;100.00
47897;BME280;39629;51.400;5.494;2023-09-18T12:55:39;100161.97;;;23.13;100.00
47897;BME280;39629;51.400;5.494;2023-09-18T13:00:46;100150.97;;;23.03;100.00
47897;BME280;39629;51.400;5.494;2023-09-18T13:05:51;100145.72;;;23.02;100.00
47897;BME280;39629;51.400;5.494;2023-09-18T13:10:55;100153.50;;;23.19;100.00
47897;BME280;39629;51.400;5.494;2023-09-18T13:15:58;100134.50;;;23.22;100.00
47897;BME280;39629;51.400;5.494;2023-09-18T13:21:09;100127.44;;;23.34;100.00
47897;BME280;39629;51.400;5.494;2023-09-18T13:26:10;100113.38;;;23.84;100.00
47897;BME280;39629;51.400;5.494;2023-09-18T13:31:12;100110.56;;;23.85;100.00
47897;BME280;39629;51.400;5.494;2023-09-18T13:36:15;100107.16;;;24.33;100.00
47897;BME280;39629;51.400;5.494;2023-09-18T13:41:17;100105.78;;;24.27;100.00
47897;BME280;39629;51.400;5.494;2023-09-18T13:46:19;100114.09;;;24.11;100.00
47897;BME280;39629;51.400;5.494;2023-09-18T13:51:22;100096.19;;;24.36;100.00
47897;BME280;39629;51.400;5.494;2023-09-18T13:56:23;100093.00;;;24.68;100.00
47897;BME280;39629;51.400;5.494;2023-09-18T14:01:28;100087.53;;;24.57;100.00
47897;BME280;39629;51.400;5.494;2023-09-18T14:06:32;100086.22;;;24.75;100.00
47897;BME280;39629;51.400;5.494;2023-09-18T14:11:34;100079.44;;;24.70;100.00
47897;BME280;39629;51.400;5.494;2023-09-18T14:16:38;100072.19;;;24.46;100.00
47897;BME280;39629;51.400;5.494;2023-09-18T14:21:41;100069.31;;;24.49;100.00
47897;BME280;39629;51.400;5.494;2023-09-18T14:26:43;100063.22;;;24.08;100.00
47897;BME280;39629;51.400;5.494;2023-09-18T14:31:45;100066.59;;;24.36;100.00
47897;BME280;39629;51.400;5.494;2023-09-18T14:36:48;100061.50;;;24.20;100.00
47897;BME280;39629;51.400;5.494;2023-09-18T14:41:49;100039.22;;;24.31;100.00
47897;BME280;39629;51.400;5.494;2023-09-18T14:46:51;100054.84;;;24.00;100.00
47897;BME280;39629;51.400;5.494;2023-09-18T14:51:54;100048.25;;;23.67;100.00
47897;BME280;39629;51.400;5.494;2023-09-18T14:56:56;100054.91;;;23.74;100.00
47897;BME280;39629;51.400;5.494;2023-09-18T15:01:58;100048.41;;;23.38;100.00
47897;BME280;39629;51.400;5.494;2023-09-18T15:07:01;100050.13;;;23.39;100.00
47897;BME280;39629;51.400;5.494;2023-09-18T15:12:03;100042.38;;;23.35;100.00
47897;BME280;39629;51.400;5.494;2023-09-18T15:17:04;100025.00;;;23.27;100.00
47897;BME280;39629;51.400;5.494;2023-09-18T15:22:09;100019.00;;;23.24;100.00
47897;BME280;39629;51.400;5.494;2023-09-18T15:27:11;100005.19;;;23.03;100.00
47897;BME280;39629;51.400;5.494;2023-09-18T15:32:12;100011.59;;;22.87;100.00
47897;BME280;39629;51.400;5.494;2023-09-18T15:37:15;100025.66;;;22.63;100.00
47897;BME280;39629;51.400;5.494;2023-09-18T15:42:17;100082.22;;;22.46;100.00
47897;BME280;39629;51.400;5.494;2023-09-18T15:47:18;100207.19;;;20.31;100.00
47897;BME280;39629;51.400;5.494;2023-09-18T15:52:22;100201.31;;;18.02;100.00
47897;BME280;39629;51.400;5.494;2023-09-18T15:57:24;100183.81;;;17.55;100.00
47897;BME280;39629;51.400;5.494;2023-09-18T16:02:26;100160.31;;;17.22;100.00
47897;BME280;39629;51.400;5.494;2023-09-18T16:07:30;100142.09;;;17.33;100.00
47897;BME280;39629;51.400;5.494;2023-09-18T16:12:32;100124.97;;;17.20;100.00
47897;BME280;39629;51.400;5.494;2023-09-18T16:17:34;100118.63;;;17.23;100.00
47897;BME280;39629;51.400;5.494;2023-09-18T16:22:37;100132.03;;;17.42;100.00
47897;BME280;39629;51.400;5.494;2023-09-18T16:27:40;100122.94;;;17.68;100.00
47897;BME280;39629;51.400;5.494;2023-09-18T16:32:43;100118.81;;;17.81;100.00
47897;BME280;39629;51.400;5.494;2023-09-18T16:37:45;100116.47;;;17.94;100.00
47897;BME280;39629;51.400;5.494;2023-09-18T16:42:47;100115.41;;;17.78;100.00
47897;BME280;39629;51.400;5.494;2023-09-18T16:47:50;100121.13;;;17.68;100.00
47897;BME280;39629;51.400;5.494;2023-09-18T16:52:54;100130.06;;;17.67;100.00
47897;BME280;39629;51.400;5.494;2023-09-18T16:57:56;100130.22;;;17.64;100.00
47897;BME280;39629;51.400;5.494;2023-09-18T17:02:57;100139.78;;;17.48;100.00
47897;BME280;39629;51.400;5.494;2023-09-18T17:08:00;100138.50;;;17.57;100.00
47897;BME280;39629;51.400;5.494;2023-09-18T17:13:04;100140.56;;;17.50;100.00
47897;BME280;39629;51.400;5.494;2023-09-18T17:18:05;100148.47;;;17.51;100.00
47897;BME280;39629;51.400;5.494;2023-09-18T17:23:08;100145.88;;;17.50;100.00
47897;BME280;39629;51.400;5.494;2023-09-18T17:28:10;100150.66;;;17.42;100.00
47897;BME280;39629;51.400;5.494;2023-09-18T17:33:12;100148.19;;;17.37;100.00
47897;BME280;39629;51.400;5.494;2023-09-18T17:38:15;100149.44;;;17.28;100.00
47897;BME280;39629;51.400;5.494;2023-09-18T17:43:17;100138.06;;;17.25;100.00
47897;BME280;39629;51.400;5.494;2023-09-18T17:48:18;100144.22;;;17.25;100.00
47897;BME280;39629;51.400;5.494;2023-09-18T17:53:21;100132.81;;;17.23;100.00
47897;BME280;39629;51.400;5.494;2023-09-18T17:58:23;100146.34;;;17.17;100.00
47897;BME280;39629;51.400;5.494;2023-09-18T18:03:24;100162.28;;;17.17;100.00
47897;BME280;39629;51.400;5.494;2023-09-18T18:08:28;100165.22;;;17.11;100.00
47897;BME280;39629;51.400;5.494;2023-09-18T18:13:29;100173.06;;;17.14;100.00
47897;BME280;39629;51.400;5.494;2023-09-18T18:18:31;100173.41;;;17.04;100.00
47897;BME280;39629;51.400;5.494;2023-09-18T18:23:34;100179.75;;;17.02;100.00
47897;BME280;39629;51.400;5.494;2023-09-18T18:28:36;100169.84;;;17.06;100.00
47897;BME280;39629;51.400;5.494;2023-09-18T18:33:38;100181.59;;;17.00;100.00
47897;BME280;39629;51.400;5.494;2023-09-18T18:38:42;100179.84;;;16.99;100.00
47897;BME280;39629;51.400;5.494;2023-09-18T18:43:44;100180.09;;;16.93;100.00
47897;BME280;39629;51.400;5.494;2023-09-18T18:48:46;100179.25;;;16.92;100.00
47897;BME280;39629;51.400;5.494;2023-09-18T18:53:49;100186.66;;;16.84;100.00
47897;BME280;39629;51.400;5.494;2023-09-18T18:58:50;100202.53;;;16.85;100.00
47897;BME280;39629;51.400;5.494;2023-09-18T19:03:52;100213.09;;;16.87;100.00
47897;BME280;39629;51.400;5.494;2023-09-18T19:08:57;100217.03;;;16.77;100.00
47897;BME280;39629;51.400;5.494;2023-09-18T19:13:59;100224.63;;;16.64;100.00
47897;BME280;39629;51.400;5.494;2023-09-18T19:19:00;100234.25;;;16.43;100.00
47897;BME280;39629;51.400;5.494;2023-09-18T19:24:05;100237.81;;;16.42;100.00
47897;BME280;39629;51.400;5.494;2023-09-18T19:29:06;100244.06;;;16.41;100.00
47897;BME280;39629;51.400;5.494;2023-09-18T19:34:08;100248.06;;;16.27;100.00
47897;BME280;39629;51.400;5.494;2023-09-18T19:39:16;100254.28;;;16.26;100.00
47897;BME280;39629;51.400;5.494;2023-09-18T19:44:18;100261.41;;;16.26;100.00
47897;BME280;39629;51.400;5.494;2023-09-18T19:49:19;100267.28;;;16.09;100.00
47897;BME280;39629;51.400;5.494;2023-09-18T19:54:22;100264.84;;;16.02;100.00
47897;BME280;39629;51.400;5.494;2023-09-18T19:59:24;100256.88;;;16.02;100.00
47897;BME280;39629;51.400;5.494;2023-09-18T20:04:26;100264.03;;;16.00;100.00
47897;BME280;39629;51.400;5.494;2023-09-18T20:09:30;100280.41;;;15.87;100.00
47897;BME280;39629;51.400;5.494;2023-09-18T20:14:32;100292.09;;;15.82;100.00
47897;BME280;39629;51.400;5.494;2023-09-18T20:19:34;100290.53;;;15.75;100.00
47897;BME280;39629;51.400;5.494;2023-09-18T20:24:37;100302.25;;;15.68;100.00
47897;BME280;39629;51.400;5.494;2023-09-18T20:29:38;100308.47;;;15.67;100.00
47897;BME280;39629;51.400;5.494;2023-09-18T20:34:40;100315.63;;;15.65;100.00
47897;BME280;39629;51.400;5.494;2023-09-18T20:39:43;100324.22;;;15.73;100.00
47897;BME280;39629;51.400;5.494;2023-09-18T20:44:44;100335.59;;;15.48;100.00
47897;BME280;39629;51.400;5.494;2023-09-18T20:49:46;100331.53;;;15.37;100.00
47897;BME280;39629;51.400;5.494;2023-09-18T20:54:50;100347.44;;;15.37;100.00
47897;BME280;39629;51.400;5.494;2023-09-18T20:59:52;100344.56;;;15.44;100.00
47897;BME280;39629;51.400;5.494;2023-09-18T21:04:54;100353.78;;;15.31;100.00
47897;BME280;39629;51.400;5.494;2023-09-18T21:09:57;100358.44;;;15.24;100.00
47897;BME280;39629;51.400;5.494;2023-09-18T21:14:58;100362.97;;;15.21;100.00
47897;BME280;39629;51.400;5.494;2023-09-18T21:20:01;100370.06;;;15.19;100.00
47897;BME280;39629;51.400;5.494;2023-09-18T21:25:06;100374.50;;;15.18;100.00
47897;BME280;39629;51.400;5.494;2023-09-18T21:30:09;100382.94;;;15.01;100.00
47897;BME280;39629;51.400;5.494;2023-09-18T21:35:11;100395.47;;;14.94;100.00
47897;BME280;39629;51.400;5.494;2023-09-18T21:40:14;100389.31;;;14.94;100.00
47897;BME280;39629;51.400;5.494;2023-09-18T21:45:16;100407.31;;;14.81;100.00
47897;BME280;39629;51.400;5.494;2023-09-18T21:50:18;100410.09;;;14.76;100.00
47897;BME280;39629;51.400;5.494;2023-09-18T21:55:21;100419.88;;;14.73;100.00
47897;BME280;39629;51.400;5.494;2023-09-18T22:00:23;100434.22;;;14.65;100.00
47897;BME280;39629;51.400;5.494;2023-09-18T22:05:28;100433.44;;;14.62;100.00
47897;BME280;39629;51.400;5.494;2023-09-18T22:10:32;100445.78;;;14.61;100.00
47897;BME280;39629;51.400;5.494;2023-09-18T22:15:34;100447.84;;;14.50;100.00
47897;BME280;39629;51.400;5.494;2023-09-18T22:20:36;100453.31;;;14.44;100.00
47897;BME280;39629;51.400;5.494;2023-09-18T22:25:39;100460.41;;;14.42;100.00
47897;BME280;39629;51.400;5.494;2023-09-18T22:30:41;100466.78;;;14.35;100.00
47897;BME280;39629;51.400;5.494;2023-09-18T22:35:45;100469.41;;;14.35;100.00
47897;BME280;39629;51.400;5.494;2023-09-18T22:57:11;100490.75;;;14.27;100.00
47897;BME280;39629;51.400;5.494;2023-09-18T23:02:14;100494.56;;;14.17;100.00
47897;BME280;39629;51.400;5.494;2023-09-18T23:07:16;100497.84;;;14.26;100.00
47897;BME280;39629;51.400;5.494;2023-09-18T23:12:19;100503.31;;;14.20;100.00
47897;BME280;39629;51.400;5.494;2023-09-18T23:17:21;100507.84;;;14.13;100.00
47897;BME280;39629;51.400;5.494;2023-09-18T23:22:24;100520.28;;;14.10;100.00
47897;BME280;39629;51.400;5.494;2023-09-18T23:27:30;100520.84;;;14.24;100.00
47897;BME280;39629;51.400;5.494;2023-09-18T23:32:32;100529.59;;;14.26;100.00
47897;BME280;39629;51.400;5.494;2023-09-18T23:37:33;100533.22;;;14.22;100.00
47897;BME280;39629;51.400;5.494;2023-09-18T23:42:37;100537.81;;;14.14;100.00
47897;BME280;39629;51.400;5.494;2023-09-18T23:47:41;100538.03;;;14.05;100.00
47897;BME280;39629;51.400;5.494;2023-09-18T23:52:45;100542.34;;;14.10;100.00
47897;BME280;39629;51.400;5.494;2023-09-18T23:57:50;100551.31;;;14.02;100.00
